Time;durP1;ratioP1;P1;durP2;ratioP2;P2;SDS_P1;SDS_P2;PMS_P1;PMS_P2;Temp;Humidity;BMP_temperature;BMP_pressure;BME280_temperature;BME280_humidity;BME280_pressure;Samples;Min_cycle;Max_cycle;Signal;HPM_P1;HPM_P2
2023/12/08 00:00:45;;;;;;;16.88;7.18;;;;;;;-8.10;56.96;101871.25;6117534;23;20480;-87
2023/12/08 00:04:05;;;;;;;15.88;6.65;;;;;;;-7.98;56.68;101861.38;6119957;23;20017;-89
2023/12/08 00:06:48;;;;;;;15.25;6.88;;;;;;;-8.78;56.73;101744.25;6147160;23;20057;-88
2023/12/08 00:09:20;;;;;;;19.73;7.47;;;;;;;-8.30;56.79;101806.56;6153693;23;19990;-88
2023/12/08 00:12:20;;;;;;;19.58;5.78;;;;;;;-7.84;56.11;101867.22;6071020;23;20088;-87
2023/12/08 00:14:52;;;;;;;14.85;6.13;;;;;;;-8.43;56.48;101796.16;6142040;23;20442;-89
2023/12/08 00:17:19;;;;;;;13.98;6.82;;;;;;;-8.24;56.38;101799.88;6141055;23;20534;-87
2023/12/08 00:20:30;;;;;;;10.70;5.28;;;;;;;-8.22;56.21;101803.25;6101349;23;20022;-87
2023/12/08 00:23:10;;;;;;;12.38;5.65;;;;;;;-8.40;56.26;101777.34;6086348;23;20109;-87
2023/12/08 00:25:36;;;;;;;12.52;5.68;;;;;;;-8.02;56.35;101820.16;6160331;23;20021;-87
2023/12/08 00:28:03;;;;;;;13.90;6.55;;;;;;;-7.74;56.31;101864.63;6139889;23;20026;-87
2023/12/08 00:30:30;;;;;;;13.85;6.70;;;;;;;-7.93;55.75;101822.88;6140156;23;20017;-86
2023/12/08 00:32:59;;;;;;;11.10;5.93;;;;;;;-8.28;56.37;101773.63;6140824;23;20056;-87
2023/12/08 00:35:48;;;;;;;19.05;7.22;;;;;;;-7.85;56.21;101862.91;6164352;23;20028;-87
2023/12/08 00:38:14;;;;;;;17.45;7.72;;;;;;;-8.22;56.70;101795.31;6118700;23;20096;-89
2023/12/08 00:40:43;;;;;;;11.93;5.47;;;;;;;-8.17;56.78;101822.31;6093508;23;20089;-89
2023/12/08 00:43:11;;;;;;;10.13;5.22;;;;;;;-8.01;56.73;101846.59;6143543;23;20542;-89
2023/12/08 00:46:00;;;;;;;13.65;5.10;;;;;;;-8.33;56.83;101778.47;6118837;23;20118;-89
2023/12/08 00:49:29;;;;;;;10.63;5.05;;;;;;;-7.86;57.19;101853.22;6141836;23;20029;-89
2023/12/08 00:52:20;;;;;;;10.13;5.00;;;;;;;-7.90;57.16;101851.81;6093352;23;20077;-88
2023/12/08 00:55:42;;;;;;;10.05;4.95;;;;;;;-7.87;57.50;101848.06;6092577;23;20024;-88
2023/12/08 00:58:08;;;;;;;17.05;6.63;;;;;;;-7.98;56.93;101818.91;6117272;23;20017;-89
2023/12/08 01:00:36;;;;;;;16.85;6.88;;;;;;;-8.41;57.23;101773.03;6186347;23;20043;-89
2023/12/08 01:03:02;;;;;;;15.25;6.35;;;;;;;-8.24;57.77;101789.28;6202457;23;20043;-89
2023/12/08 01:05:28;;;;;;;13.23;7.32;;;;;;;-8.67;57.67;101721.31;6149400;23;20084;-90
2023/12/08 01:07:59;;;;;;;17.43;6.63;;;;;;;-8.67;57.62;101729.28;6170405;23;20080;-89
2023/12/08 01:10:40;;;;;;;10.85;5.60;;;;;;;-8.31;57.38;101788.94;6145523;23;20579;-88
2023/12/08 01:13:06;;;;;;;10.30;5.07;;;;;;;-8.33;57.84;101789.09;6146326;23;20044;-89
2023/12/08 01:15:46;;;;;;;16.10;6.13;;;;;;;-8.45;58.24;101797.25;6145325;23;20028;-87
2023/12/08 01:18:14;;;;;;;19.35;5.93;;;;;;;-8.60;57.95;101757.78;6171847;23;20020;-87
2023/12/08 01:20:42;;;;;;;15.45;6.85;;;;;;;-8.10;58.45;101836.72;6146995;23;20023;-87
2023/12/08 01:23:39;;;;;;;21.63;6.50;;;;;;;-8.01;58.17;101835.97;6195161;23;20032;-88
2023/12/08 01:26:11;;;;;;;11.48;5.43;;;;;;;-8.20;58.48;101820.75;6145058;23;20075;-88
2023/12/08 01:28:37;;;;;;;14.73;6.32;;;;;;;-8.35;58.75;101817.53;6146464;23;20116;-87
2023/12/08 01:31:12;;;;;;;15.68;6.47;;;;;;;-8.52;58.85;101760.63;6145601;23;20032;-88
2023/12/08 01:33:44;;;;;;;11.73;6.07;;;;;;;-8.48;58.53;101760.38;6146086;23;20064;-88
2023/12/08 01:36:25;;;;;;;12.90;6.10;;;;;;;-8.56;58.40;101745.13;6168243;23;20120;-89
2023/12/08 01:39:17;;;;;;;11.30;6.05;;;;;;;-8.04;58.83;101833.56;6170064;23;20495;-90
2023/12/08 01:41:50;;;;;;;20.33;6.28;;;;;;;-8.68;58.40;101716.97;6144846;23;20116;-90
2023/12/08 01:44:23;;;;;;;14.82;6.35;;;;;;;-8.35;58.47;101782.22;6176648;23;20107;-89
2023/12/08 01:46:52;;;;;;;14.75;6.85;;;;;;;-8.29;58.72;101785.19;6200898;23;20443;-89
2023/12/08 01:49:25;;;;;;;16.23;7.35;;;;;;;-8.32;58.81;101780.16;6226506;23;20024;-87
2023/12/08 01:52:09;;;;;;;15.30;6.30;;;;;;;-8.44;59.19;101790.97;6226388;23;20025;-89
2023/12/08 01:54:36;;;;;;;11.20;6.13;;;;;;;-8.54;59.09;101749.34;6201508;23;20025;-88
2023/12/08 01:57:02;;;;;;;10.27;5.28;;;;;;;-8.24;58.85;101789.28;6200473;23;20047;-89
2023/12/08 02:00:49;;;;;;;14.43;5.47;;;;;;;-7.97;58.84;101826.75;6224425;23;20024;-89
2023/12/08 02:03:35;;;;;;;13.73;7.05;;;;;;;-8.36;59.40;101785.84;6177907;23;20020;-89
2023/12/08 02:06:02;;;;;;;16.58;6.90;;;;;;;-8.22;59.46;101803.25;6201533;23;20017;-88
2023/12/08 02:08:28;;;;;;;13.50;6.23;;;;;;;-8.25;58.91;101799.03;6177347;23;20227;-89
2023/12/08 02:10:58;;;;;;;14.43;7.60;;;;;;;-8.19;59.32;101803.84;6226237;23;20250;-89
2023/12/08 02:13:24;;;;;;;15.05;5.85;;;;;;;-7.98;58.87;101826.88;6176471;23;20016;-88
2023/12/08 02:19:22;;;;;;;12.35;5.05;;;;;;;-8.07;58.36;101817.91;6226954;23;20255;-88
2023/12/08 02:22:04;;;;;;;15.52;6.88;;;;;;;-8.23;58.77;101810.38;6225030;23;20013;-88
2023/12/08 02:24:30;;;;;;;13.38;6.20;;;;;;;-8.15;59.21;101823.00;6227947;23;20458;-87
2023/12/08 02:26:57;;;;;;;17.15;7.32;;;;;;;-8.39;59.13;101765.75;6176502;23;20040;-88
2023/12/08 02:29:29;;;;;;;14.90;7.17;;;;;;;-8.35;59.32;101782.22;6225438;23;20048;-89
2023/12/08 02:32:40;;;;;;;17.50;7.22;;;;;;;-8.43;58.91;101751.06;6176690;23;20037;-89
2023/12/08 02:35:08;;;;;;;13.77;6.15;;;;;;;-8.23;58.91;101785.66;6200515;23;20024;-89
2023/12/08 02:37:41;;;;;;;12.88;6.70;;;;;;;-8.18;58.46;101808.16;6224509;23;20083;-89
2023/12/08 02:40:13;;;;;;;17.90;7.10;;;;;;;-8.59;59.04;101748.03;6176137;23;20016;-88
2023/12/08 02:42:46;;;;;;;14.07;6.15;;;;;;;-8.25;58.35;101788.44;6201080;23;20023;-88
2023/12/08 02:45:33;;;;;;;14.60;6.88;;;;;;;-8.06;58.79;101824.88;6176243;23;20027;-90
2023/12/08 02:47:59;;;;;;;15.52;7.75;;;;;;;-8.31;59.00;101805.72;6199530;23;20017;-88
2023/12/08 02:50:51;;;;;;;21.27;7.60;;;;;;;-7.91;58.58;101828.03;6192534;23;20024;-89
2023/12/08 02:53:18;;;;;;;15.25;6.32;;;;;;;-8.03;57.78;101808.69;6226593;23;20095;-88
2023/12/08 02:56:25;;;;;;;16.30;6.97;;;;;;;-8.22;57.55;101782.03;6140264;23;20024;-89
2023/12/08 02:59:16;;;;;;;18.20;6.72;;;;;;;-7.89;57.99;101826.94;6140633;23;20406;-88
2023/12/08 03:01:42;;;;;;;17.63;6.80;;;;;;;-8.39;58.21;101733.91;6166534;23;20057;-89
2023/12/08 03:04:08;;;;;;;14.80;6.38;;;;;;;-8.08;57.87;101768.41;6142244;23;20010;-88
2023/12/08 03:06:40;;;;;;;18.40;7.20;;;;;;;-7.99;57.48;101801.31;6117991;23;20060;-88
2023/12/08 03:09:07;;;;;;;11.80;5.90;;;;;;;-8.06;58.13;101796.53;6093297;23;20017;-89
2023/12/08 03:11:42;;;;;;;13.95;6.45;;;;;;;-8.02;57.89;101793.59;6141981;23;20028;-88
2023/12/08 03:14:33;;;;;;;15.23;6.90;;;;;;;-7.83;57.29;101826.41;6140835;23;20028;-90
2023/12/08 03:17:06;;;;;;;19.50;6.07;;;;;;;-8.06;57.28;101766.50;6117446;23;20048;-89
2023/12/08 03:19:32;;;;;;;16.92;6.28;;;;;;;-8.21;57.02;101762.47;6168282;23;20037;-88
2023/12/08 03:22:01;;;;;;;16.42;7.35;;;;;;;-8.35;57.19;101745.09;6144243;23;20459;-88
2023/12/08 03:24:45;;;;;;;14.40;6.28;;;;;;;-8.09;56.86;101787.97;6146241;23;20028;-90
2023/12/08 03:27:11;;;;;;;16.38;6.72;;;;;;;-8.23;56.91;101764.44;6168594;23;20017;-89
2023/12/08 03:30:03;;;;;;;11.60;5.97;;;;;;;-7.79;56.88;101829.66;6142388;23;20021;-89
2023/12/08 03:32:30;;;;;;;8.48;4.43;;;;;;;-8.16;57.25;101800.94;6158317;23;20021;-89
2023/12/08 03:35:47;;;;;;;10.38;5.10;;;;;;;-8.08;57.54;101829.47;6204675;23;20043;-90
2023/12/08 03:39:11;;;;;;;12.45;6.47;;;;;;;-7.95;57.56;101821.31;6205314;23;20021;-90
2023/12/08 03:42:02;;;;;;;19.38;6.88;;;;;;;-7.98;57.40;101834.84;6184711;23;20017;-89
2023/12/08 03:44:34;;;;;;;12.75;6.03;;;;;;;-8.29;57.74;101768.44;6232257;23;20013;-91
2023/12/08 03:47:14;;;;;;;13.18;5.57;;;;;;;-8.85;57.33;101695.38;6206225;23;20067;-90
2023/12/08 03:50:07;;;;;;;11.60;6.25;;;;;;;-8.00;57.22;101828.84;6206391;23;20092;-90
2023/12/08 03:52:37;;;;;;;15.43;6.97;;;;;;;-8.85;58.08;101716.56;6207348;23;20409;-91
2023/12/08 03:55:21;;;;;;;19.95;6.00;;;;;;;-8.59;58.10;101774.53;6230671;23;20012;-89
2023/12/08 03:57:49;;;;;;;21.17;7.10;;;;;;;-8.43;58.70;101808.59;6210201;23;20013;-89
2023/12/08 04:00:23;;;;;;;;;;;;;;;-8.25;58.56;101836.19;6213106;23;20036;-89
2023/12/08 04:03:39;;;;;;;14.13;5.93;;;;;;;-8.17;58.35;101823.13;6212691;23;19919;-90
2023/12/08 04:06:09;;;;;;;13.27;5.72;;;;;;;-8.69;58.34;101763.84;6218616;23;20021;-89
2023/12/08 04:08:44;;;;;;;14.18;7.18;;;;;;;-9.22;58.80;101702.88;6238776;23;20359;-91
2023/12/08 04:11:20;;;;;;;15.70;5.30;;;;;;;-8.57;58.53;101794.66;6210185;23;20059;-90
2023/12/08 04:14:41;;;;;;;12.15;6.43;;;;;;;-8.27;58.93;101844.28;6212132;23;20020;-90
2023/12/08 04:17:45;;;;;;;11.95;5.80;;;;;;;-8.30;58.52;101831.28;6213454;23;20001;-91
2023/12/08 04:20:14;;;;;;;12.80;5.95;;;;;;;-8.33;58.23;101843.97;6187930;23;20040;-90
2023/12/08 04:32:49;;;;;;;18.75;6.57;;;;;;;-7.98;58.19;101843.63;6236460;23;20036;-90
2023/12/08 04:45:46;;;;;;;9.50;5.10;;;;;;;-8.03;57.69;101821.97;5987044;23;20028;-88
2023/12/08 04:48:59;;;;;;;13.23;6.22;;;;;;;-8.05;57.83;101800.00;5921289;24;20067;-90
2023/12/08 04:51:35;;;;;;;13.20;6.65;;;;;;;-7.58;57.23;101842.91;5965008;23;20028;-91
2023/12/08 04:54:16;;;;;;;18.15;7.45;;;;;;;-8.44;56.50;101720.22;6010306;23;20031;-90
2023/12/08 04:57:29;;;;;;;13.38;5.40;;;;;;;-8.29;56.49;101763.13;5932608;23;20020;-88
2023/12/08 05:00:08;;;;;;;15.57;6.95;;;;;;;-7.98;56.95;101818.91;5983757;23;20019;-89
2023/12/08 05:02:47;;;;;;;11.80;5.45;;;;;;;-8.17;56.88;101786.00;6009151;23;20020;-91
2023/12/08 05:08:08;;;;;;;15.13;7.65;;;;;;;-8.29;56.61;101761.31;6239518;23;20060;-90
2023/12/08 05:10:48;;;;;;;15.73;7.10;;;;;;;-8.82;56.75;101697.75;6187632;23;20020;-90
2023/12/08 05:13:40;;;;;;;13.68;7.28;;;;;;;-7.77;56.91;101851.63;6187693;23;20017;-90
2023/12/08 05:16:14;;;;;;;17.30;6.72;;;;;;;-8.35;56.45;101771.59;6185011;23;20016;-90
2023/12/08 05:19:23;;;;;;;14.82;6.13;;;;;;;-7.95;56.76;101848.69;6160860;23;20021;-89
2023/12/08 05:22:03;;;;;;;14.98;7.10;;;;;;;-8.54;56.76;101754.63;6161362;23;20013;-90
2023/12/08 05:27:50;;;;;;;13.75;7.10;;;;;;;-8.36;56.61;101777.91;6119752;23;20022;-90
2023/12/08 05:30:29;;;;;;;14.63;6.97;;;;;;;-8.31;56.46;101770.38;6091423;23;20023;-88
2023/12/08 05:33:03;;;;;;;17.63;7.15;;;;;;;-8.28;56.13;101781.59;6069460;23;20555;-90
2023/12/08 05:36:35;;;;;;;15.68;6.95;;;;;;;-7.88;56.61;101862.28;6072923;23;20157;-90
2023/12/08 05:39:41;;;;;;;14.00;7.82;;;;;;;-8.32;56.72;101796.06;6091504;23;20030;-90
2023/12/08 05:42:08;;;;;;;16.48;6.07;;;;;;;-8.44;57.23;101817.50;6117546;22;20303;-88
2023/12/08 05:44:34;;;;;;;23.15;8.73;;;;;;;-8.75;56.80;101786.41;6184617;23;20029;-90
2023/12/08 05:47:24;;;;;;;16.55;6.63;;;;;;;-8.33;57.79;101851.94;6161529;23;20021;-90
2023/12/08 05:49:56;;;;;;;21.23;7.63;;;;;;;-8.95;57.36;101743.97;6042674;23;20062;-90
2023/12/08 05:52:36;;;;;;;15.52;5.75;;;;;;;-8.52;57.66;101812.84;6018923;23;20022;-90
2023/12/08 05:55:55;;;;;;;23.50;8.25;;;;;;;-8.10;57.30;101874.72;6053490;23;20047;-89
2023/12/08 05:58:39;;;;;;;17.95;8.90;;;;;;;-8.29;57.02;101824.16;6065493;23;20003;-89
2023/12/08 06:13:18;;;;;;;13.93;6.60;;;;;;;-8.96;56.96;101774.94;6267703;23;20095;-90
2023/12/08 06:15:47;;;;;;;18.88;7.85;;;;;;;-8.61;57.09;101817.13;6217266;23;20020;-90
2023/12/08 06:18:41;;;;;;;17.98;7.30;;;;;;;-9.17;56.73;101713.06;6218669;23;20031;-91
2023/12/08 06:21:25;;;;;;;20.92;7.32;;;;;;;-8.64;56.97;101821.81;6217819;23;20016;-91
2023/12/08 06:29:19;;;;;;;18.95;5.85;;;;;;;-8.27;56.50;101856.72;6268396;23;20054;-90
2023/12/08 06:32:43;;;;;;;13.63;7.00;;;;;;;-8.16;56.25;101848.69;6268918;23;20094;-90
2023/12/08 06:35:13;;;;;;;10.48;4.90;;;;;;;-8.54;56.13;101802.38;6215630;23;20454;-90
2023/12/08 06:37:56;;;;;;;17.98;7.20;;;;;;;-9.07;56.50;101728.13;6217324;23;20015;-91
2023/12/08 06:40:27;;;;;;;16.25;6.97;;;;;;;-8.56;56.89;101844.09;6191141;23;20031;-90
2023/12/08 06:43:20;;;;;;;13.20;6.00;;;;;;;-8.51;57.13;101838.38;6217096;23;20036;-90
2023/12/08 06:45:50;;;;;;;15.23;6.97;;;;;;;-8.78;57.11;101791.13;6189239;23;20079;-90
2023/12/08 06:48:32;;;;;;;14.98;6.82;;;;;;;-9.02;56.49;101756.88;6188948;23;20031;-91
2023/12/08 06:50:59;;;;;;;18.35;6.65;;;;;;;-8.90;56.43;101769.13;6150150;23;20022;-91
2023/12/08 06:54:24;;;;;;;17.85;6.70;;;;;;;-8.24;56.54;101860.91;6174852;23;20089;-88
2023/12/08 06:57:46;;;;;;;16.77;7.00;;;;;;;-8.08;56.00;101853.34;6178872;23;20006;-92
2023/12/08 07:00:20;;;;;;;21.38;8.10;;;;;;;-8.27;55.88;101823.06;6176652;23;20018;-91
2023/12/08 07:07:17;;;;;;;16.77;7.10;;;;;;;-8.65;55.58;101762.63;6175592;23;20032;-90
2023/12/08 07:09:49;;;;;;;25.02;7.55;;;;;;;-8.31;55.38;101799.56;6151826;23;20021;-91
2023/12/08 07:12:50;;;;;;;16.52;7.03;;;;;;;-8.90;54.91;101702.88;6128122;23;20076;-91
2023/12/08 07:15:53;;;;;;;23.42;7.60;;;;;;;-8.34;55.05;101813.94;6066144;23;20111;-91
2023/12/08 07:21:17;;;;;;;22.83;8.18;;;;;;;-8.72;55.31;101768.56;6248872;22;20107;-91
2023/12/08 07:23:48;;;;;;;42.05;8.90;;;;;;;-8.22;54.98;101851.03;6220551;23;20028;-91
2023/12/08 07:27:01;;;;;;;22.17;7.60;;;;;;;-8.19;54.57;101861.38;6220401;22;20023;-89
2023/12/08 07:42:43;;;;;;;15.18;7.00;;;;;;;-8.10;54.71;101850.00;6258094;22;20008;-91
2023/12/08 07:45:43;;;;;;;19.83;8.63;;;;;;;-8.38;54.64;101809.03;6196313;22;20012;-91
2023/12/08 07:53:34;;;;;;;12.45;6.55;;;;;;;-8.07;54.50;101858.56;6207725;22;20474;-92
2023/12/08 07:57:24;;;;;;;14.95;7.28;;;;;;;-8.78;54.51;101738.09;6239211;23;20059;-90
2023/12/08 08:14:35;;;;;;;15.30;7.53;;;;;;;-8.59;53.94;101801.06;6252063;22;20012;-90
2023/12/08 08:28:42;;;;;;;11.73;6.13;;;;;;;-8.34;54.81;101837.81;6243930;23;20043;-90
2023/12/08 08:31:52;;;;;;;20.92;8.43;;;;;;;-8.16;54.16;101829.28;6239610;23;20020;-91
2023/12/08 08:34:43;;;;;;;14.10;6.93;;;;;;;-8.55;53.70;101798.03;6202938;23;20026;-91
2023/12/08 08:37:33;;;;;;;14.20;7.47;;;;;;;-9.13;53.97;101699.47;6168309;23;20016;-88
2023/12/08 08:40:49;;;;;;;23.85;7.18;;;;;;;-8.39;53.94;101825.94;6215506;23;20008;-89
2023/12/08 08:46:11;;;;;;;17.73;7.90;;;;;;;-9.03;54.05;101734.00;6286396;22;20050;-86
2023/12/08 08:48:44;;;;;;;27.77;9.45;;;;;;;-8.61;54.04;101813.59;6265937;22;20020;-86
2023/12/08 08:51:11;;;;;;;19.13;8.40;;;;;;;-8.48;54.25;101830.19;6266377;22;20025;-86
2023/12/08 08:53:40;;;;;;;17.70;9.13;;;;;;;-8.51;54.30;101809.22;6191017;22;20023;-84
2023/12/08 08:56:07;;;;;;;21.13;9.02;;;;;;;-8.53;54.22;101821.78;6291899;22;20022;-90
2023/12/08 08:58:39;;;;;;;20.65;8.43;;;;;;;-9.36;54.48;101695.22;6239678;22;20022;-88
2023/12/08 09:01:06;;;;;;;20.35;8.73;;;;;;;-8.99;54.35;101746.03;6265721;22;20393;-85
2023/12/08 09:04:22;;;;;;;16.35;6.95;;;;;;;-9.08;54.06;101742.31;6298320;22;20019;-87
2023/12/08 09:07:34;;;;;;;17.25;6.90;;;;;;;-8.52;54.41;101818.97;6181129;23;20002;-89
2023/12/08 09:10:45;;;;;;;20.20;6.90;;;;;;;-8.29;54.31;101825.00;6155752;23;20021;-89
2023/12/08 09:13:42;;;;;;;15.70;6.93;;;;;;;-8.30;53.60;101825.13;6157517;23;20029;-87
2023/12/08 09:16:12;;;;;;;17.55;8.05;;;;;;;-8.28;53.63;101812.56;6155199;23;20002;-89
2023/12/08 09:18:39;;;;;;;18.55;8.75;;;;;;;-8.25;53.76;101809.66;6106931;23;20017;-88
2023/12/08 09:21:06;;;;;;;14.32;6.75;;;;;;;-8.50;53.96;101763.19;6126244;23;20021;-88
2023/12/08 09:24:03;;;;;;;;;;;;;;;-8.31;54.18;101812.81;6129841;23;20085;-90
2023/12/08 09:27:00;;;;;;;14.77;7.03;;;;;;;-8.40;54.21;101805.69;6179077;23;19969;-89
2023/12/08 09:29:41;;;;;;;14.55;6.60;;;;;;;-8.59;53.99;101769.25;6159725;23;20010;-88
2023/12/08 09:32:44;;;;;;;18.20;7.18;;;;;;;-8.79;54.01;101718.72;6182179;23;20013;-89
2023/12/08 09:35:39;;;;;;;10.82;6.05;;;;;;;-8.27;53.41;101788.56;6097950;23;20018;-87
2023/12/08 10:00:16;;;;;;;16.25;7.53;;;;;;;-8.09;52.60;101769.41;6259424;22;20079;-87
2023/12/08 10:23:34;;;;;;;24.52;9.18;;;;;;;-8.11;51.87;101670.47;6240095;22;20241;-89
2023/12/08 10:26:37;;;;;;;15.85;7.75;;;;;;;-7.98;52.22;101710.91;6244307;23;20015;-90
2023/12/08 10:29:56;;;;;;;18.02;8.18;;;;;;;-8.20;52.61;101703.16;6253138;22;20000;-89
2023/12/08 10:32:53;;;;;;;16.77;7.40;;;;;;;-8.46;52.57;101669.09;6153023;23;19997;-89
2023/12/08 10:36:01;;;;;;;19.77;7.85;;;;;;;-8.68;52.47;101648.03;6119009;23;20018;-86
2023/12/08 10:38:35;;;;;;;18.50;7.97;;;;;;;-8.92;52.66;101587.34;6038882;23;20030;-89
2023/12/08 10:51:27;;;;;;;20.50;8.15;;;;;;;-8.00;51.83;101670.41;6224508;23;20005;-88
2023/12/08 10:57:38;;;;;;;20.75;8.40;;;;;;;-7.32;51.48;101723.69;6271012;22;20012;-89
2023/12/08 11:11:32;;;;;;;16.40;7.55;;;;;;;-7.81;51.50;101720.94;6295433;22;20461;-90
2023/12/08 11:14:20;;;;;;;24.70;8.93;;;;;;;-7.69;51.78;101739.41;6212916;23;20064;-89
2023/12/08 11:17:29;;;;;;;15.00;7.45;;;;;;;-7.65;51.86;101732.84;6218322;23;20035;-86
2023/12/08 11:20:46;;;;;;;14.32;6.38;;;;;;;-7.82;51.88;101742.28;6216320;23;20012;-85
2023/12/08 11:23:42;;;;;;;15.25;6.88;;;;;;;-7.83;51.97;101736.13;6240586;23;20056;-84
2023/12/08 11:27:02;;;;;;;18.00;7.65;;;;;;;-7.78;52.12;101738.41;6241365;23;20057;-84
2023/12/08 11:29:56;;;;;;;26.20;7.28;;;;;;;-7.94;52.04;101733.59;6216621;23;19997;-85
2023/12/08 11:32:57;;;;;;;17.55;7.40;;;;;;;-8.10;52.57;101731.41;6239559;23;20074;-83
2023/12/08 11:35:39;;;;;;;15.30;8.02;;;;;;;-8.16;53.09;101723.97;6213541;23;20029;-84
2023/12/08 11:38:30;;;;;;;14.43;6.68;;;;;;;-8.42;53.07;101690.91;6095168;23;20003;-83
2023/12/08 11:40:56;;;;;;;16.50;7.28;;;;;;;-8.59;53.17;101687.88;6120989;23;20026;-84
2023/12/08 11:43:31;;;;;;;18.52;7.15;;;;;;;-8.47;53.62;101698.44;6118504;23;20026;-84
2023/12/08 11:46:10;;;;;;;17.00;7.45;;;;;;;-8.34;53.69;101712.31;6093407;23;20027;-85
2023/12/08 11:48:56;;;;;;;14.88;6.97;;;;;;;-8.18;53.66;101720.59;6114606;23;20026;-83
2023/12/08 11:51:23;;;;;;;19.27;7.35;;;;;;;-8.18;53.36;101715.28;6038699;23;20045;-82
2023/12/08 11:53:56;;;;;;;21.17;8.00;;;;;;;-8.43;53.68;101683.94;6064460;23;20078;-83
2023/12/08 11:56:51;;;;;;;15.93;7.13;;;;;;;-8.64;53.91;101652.09;6113522;23;20034;-84
2023/12/08 11:59:24;;;;;;;14.88;7.13;;;;;;;-8.41;53.77;101668.69;6070952;23;20023;-84
2023/12/08 12:02:20;;;;;;;18.15;6.88;;;;;;;-8.22;53.39;101734.28;6090548;23;20045;-82
2023/12/08 12:04:55;;;;;;;20.00;7.63;;;;;;;-8.39;53.94;101744.53;6093817;23;20019;-83
2023/12/08 12:07:28;;;;;;;20.02;8.40;;;;;;;-8.81;54.00;101675.56;6116155;23;20022;-84
2023/12/08 12:10:35;;;;;;;21.77;8.07;;;;;;;-8.84;54.34;101675.84;6097150;23;19999;-84
2023/12/08 12:13:15;;;;;;;22.45;7.75;;;;;;;-8.61;54.33;101720.78;6120765;23;20026;-84
2023/12/08 12:15:43;;;;;;;20.42;8.15;;;;;;;-8.38;54.24;101746.22;6138763;23;20053;-83
2023/12/08 12:18:12;;;;;;;23.27;9.07;;;;;;;-8.37;53.98;101741.75;6175240;23;20017;-83
2023/12/08 12:20:43;;;;;;;18.77;7.88;;;;;;;-8.40;53.66;101740.22;6201155;23;20049;-86
2023/12/08 12:23:13;;;;;;;18.48;6.90;;;;;;;-8.46;53.75;101721.31;6177138;23;20036;-83
2023/12/08 12:25:48;;;;;;;19.48;8.45;;;;;;;-8.66;53.55;101693.84;6178573;23;20046;-84
2023/12/08 12:28:19;;;;;;;32.42;6.60;;;;;;;-8.77;53.38;101686.78;6177265;23;20545;-85
2023/12/08 12:30:51;;;;;;;21.27;7.95;;;;;;;-8.68;53.73;101752.28;6179548;23;20113;-86
2023/12/08 12:33:45;;;;;;;20.40;8.77;;;;;;;-8.61;54.34;101739.34;6131645;23;20029;-86
2023/12/08 12:36:22;;;;;;;14.77;7.63;;;;;;;-8.90;54.00;101694.09;6176181;23;20020;-82
2023/12/08 12:39:15;;;;;;;25.45;7.75;;;;;;;-8.97;53.71;101677.84;6176922;23;20001;-84
2023/12/08 12:42:05;;;;;;;21.88;8.50;;;;;;;-8.66;53.96;101742.41;6161388;23;20034;-84
2023/12/08 12:44:44;;;;;;;16.80;6.80;;;;;;;-8.90;54.62;101750.59;6201462;23;20037;-89
2023/12/08 12:47:37;;;;;;;23.00;7.97;;;;;;;-8.89;54.94;101746.94;6175670;23;20031;-85
2023/12/08 15:31:21;;;;;;;5.70;4.88;;;;;;;-10.28;56.94;101669.00;6236735;22;20081;-86
2023/12/08 15:34:41;;;;;;;10.98;6.03;;;;;;;-9.88;56.31;101718.75;6240985;23;20019;-83
2023/12/08 15:37:13;;;;;;;6.78;4.35;;;;;;;-10.00;56.23;101711.78;6242332;23;20050;-85
2023/12/08 15:39:39;;;;;;;16.55;8.15;;;;;;;-10.36;55.94;101655.56;6191797;23;20024;-87
2023/12/08 15:42:34;;;;;;;13.68;5.85;;;;;;;-10.24;56.19;101649.25;6264716;22;20023;-87
2023/12/08 15:45:43;;;;;;;11.52;5.95;;;;;;;-9.95;55.71;101706.97;6221772;23;20004;-89
2023/12/08 15:48:52;;;;;;;10.00;5.38;;;;;;;-10.06;55.67;101712.28;6252554;23;20023;-84
2023/12/08 15:51:22;;;;;;;12.15;4.35;;;;;;;-10.03;56.00;101710.22;6266866;22;20001;-88
2023/12/08 15:54:13;;;;;;;8.93;5.03;;;;;;;-10.20;55.91;101663.06;6221870;23;20060;-88
2023/12/08 16:00:21;;;;;;;12.20;5.22;;;;;;;-10.96;55.44;101572.09;6283234;22;20024;-85
2023/12/08 16:03:15;;;;;;;15.95;6.47;;;;;;;-10.35;55.40;101702.19;6253853;22;20004;-85
2023/12/08 16:05:50;;;;;;;16.45;8.52;;;;;;;-10.48;55.96;101704.91;6193439;22;20023;-86
2023/12/08 16:08:49;;;;;;;7.22;3.83;;;;;;;-10.77;56.40;101701.84;6225038;22;20012;-87
2023/12/08 16:11:50;;;;;;;14.80;6.97;;;;;;;-11.08;56.45;101632.00;6294964;22;20023;-83
2023/12/08 16:14:43;;;;;;;11.35;5.28;;;;;;;-10.77;56.39;101695.72;6297728;22;20042;-89
2023/12/08 16:17:45;;;;;;;13.85;6.07;;;;;;;-11.53;56.62;101591.38;6238060;22;20015;-88
2023/12/08 16:20:15;;;;;;;14.15;6.57;;;;;;;-10.88;56.49;101683.31;6293356;22;20015;-85
2023/12/08 16:22:45;;;;;;;;;;;;;;;-10.88;56.78;101685.97;6274589;22;20029;-86
2023/12/08 16:25:13;;;;;;;10.68;5.70;;;;;;;-10.80;56.67;101678.28;6225947;22;19903;-87
2023/12/08 16:28:10;;;;;;;9.95;4.55;;;;;;;-11.68;56.93;101549.38;6179923;23;20025;-85
2023/12/08 16:30:42;;;;;;;12.35;6.32;;;;;;;-11.18;56.95;101620.44;6130788;23;20021;-84
2023/12/08 17:46:33;;;;;;;9.82;5.45;;;;;;;-10.94;57.72;101654.72;6237743;22;20029;-89
2023/12/08 18:46:07;;;;;;;14.60;6.40;;;;;;;-10.95;57.55;101635.41;6236513;22;20029;-84
2023/12/08 18:48:36;;;;;;;;;;;;;;;-10.63;57.82;101628.59;6264298;23;20020;-85
2023/12/08 18:54:50;;;;;;;10.85;6.18;;;;;;;-11.02;57.45;101556.75;6267236;23;20031;-87
2023/12/08 18:58:12;;;;;;;12.50;5.70;;;;;;;-11.31;57.58;101514.91;6241773;23;20024;-85
2023/12/08 19:00:46;;;;;;;17.23;7.80;;;;;;;-11.07;57.11;101554.44;6092112;23;20014;-84
2023/12/08 19:03:35;;;;;;;18.85;7.68;;;;;;;-10.98;57.16;101545.81;6062159;23;20022;-84
2023/12/08 19:06:05;;;;;;;12.55;7.15;;;;;;;-10.38;56.86;101633.66;6024839;23;20016;-85
2023/12/08 19:18:36;;;;;;;11.73;4.90;;;;;;;-10.35;56.84;101627.31;6113435;23;20057;-85
2023/12/08 19:21:07;;;;;;;15.68;6.70;;;;;;;-10.55;56.58;101582.13;6112977;23;20002;-86
2023/12/08 19:25:08;;;;;;;8.32;5.63;;;;;;;-10.67;56.65;101551.34;6117330;23;20053;-85
2023/12/08 20:40:40;;;;;;;11.02;5.95;;;;;;;-10.51;58.14;101604.69;6239531;22;20128;-89
2023/12/08 20:55:14;;;;;;;12.60;5.88;;;;;;;-11.23;58.19;101501.97;6237925;22;20024;-88
2023/12/08 21:24:27;;;;;;;14.13;7.70;;;;;;;-11.13;58.67;101510.00;6251860;22;20016;-89
2023/12/08 21:27:13;;;;;;;17.20;7.40;;;;;;;-10.56;58.27;101583.09;6217927;23;20000;-82
2023/12/08 21:38:45;;;;;;;16.00;8.15;;;;;;;-10.46;58.23;101591.97;6224304;22;20021;-89
2023/12/08 21:41:38;;;;;;;16.27;7.03;;;;;;;-10.23;58.36;101576.03;6129080;23;20009;-91
2023/12/08 23:33:22;;;;;;;18.40;8.10;;;;;;;-10.19;57.87;101556.34;6248139;22;20447;-91
